Share

Sutton, ND

03:36 PM CDT die 23o April, anno 2014 (GMT -0500)
Thurlow Farms (KNDCARRI3) Elev 1535 ft | 47.43 °N, 98.84 °W | Change Station
Active Advisory: Wind Advisory

Current weather conditions updated 3 minutes ago

Light Rain
Pluvia Levis
42.1 °F
Feels Like 38 °F
N
7.0
Ventus Variabilis Ventus from Auster
Gusts 10.0 mph
Solis Ortus 6:30 AM
Solis Occasus 8:34 PM
Moon Waning Crescent

Today is forecast to be Much Cooler than yesterday.

Pressio 29.73 in
Visibilitas 8.0 milia passuum
Clouds Plerumque Nubila 4800 ft
Aequaliter Nubila 7000 ft
Frigus Venti 38 °F
Frigus in quo Ros apparet 39 °F
Umor 89%
Rainfall 0.27 in
Snow Depth Not available.
UV 2 out of 16
Pollen 7.80 out of 12
Air Quality Not available.
Flu Activity Sporadic
METAR KJMS 231956Z AUTO 13024G32KT 8SM -RA BKN048 OVC070 07/04 A2970 RMK AO2 PK WND 12035/1912 SLP066 P0003 T00670044

More Conditions Fewer Conditions

Pressio 29.73 in
Visibilitas 8.0 milia passuum
Clouds Plerumque Nubila 4800 ft
Aequaliter Nubila 7000 ft
Frigus Venti 38 °F
Frigus in quo Ros apparet 39 °F
Umor 89%
Rainfall 0.27 in
Snow Depth Not available.
UV 2 out of 16
Pollen 7.80 out of 12
Air Quality Not available.
Flu Activity Sporadic
METAR KJMS 231956Z AUTO 13024G32KT 8SM -RA BKN048 OVC070 07/04 A2970 RMK AO2 PK WND 12035/1912 SLP066 P0003 T00670044

More Conditions Fewer Conditions

10-Day Weather Forecast

Almanac

Astronomy

Apr. 23, 2014 Rise Set
Actual Time 6:30 AM CDT 8:34 PM CDT
Civil Twilight 5:57 AM CDT 9:07 PM CDT
Nautical Twilight 5:16 AM CDT 9:48 PM CDT
Astronomical Twilight 4:31 AM CDT 10:34 PM CDT
Moon 3:28 AM CDT 2:20 PM CDT
Length Of Visible Light 15h 09m
Length of Day
14h 03m
Tomorrow will be 3m 10s longer.
Waning Crescent, 33% of the Moon is Illuminated
Hodie
Waning Crescent
Apr 29
New
May 6
First Quarter
May 14
Full
May 21
Last Quarter

Today's Extremes

State Highs State Lows

Community

  • Stunning Sunrise
    Stunning Sunrise
  • spring flowers
    spring flowers
  • Earth Day Spectrum Ove' Blue
    Earth Day Spectrum Ove' Blue
  • BARN B&W
    BARN B&W
  • April Sunset
    April Sunset

WunderPhotos

Upload Photos

1,704,403 photos uploaded!

WunderBlogs® & News

Nearby

Snow Depth

Station Depth Elevation
No new snow has been reported.

Coastal Water Temperatures

Locus Calor
No Stations Reporting

Earthquake Activity

City Distance Mag. Time & Date
No recent earthquake activity has been reported nearby.
Minimum magnitude displayed is 2.5.

Nearby Weather Stations

Station Location Temp Frigus Venti Frigus in quo Ros apparet Umor Ventus Precip. Elev Renovata Type
Thurlow Farms, Carrington, ND 42.1 °F 38 °F 39 °F 89% Auster  -  7.0 mph 0.04 in / hr 1535 ft 3:33 PM CDT Normal
RAWS ARROWWOOD 2 ND, Kensal, ND 43 °F 33 °F 40 °F 88% Inter Austrum et Eurum  -  26 mph 0.03 in / hr 1520 ft 2:34 PM CDT MADIS

Show More Stations Show Fewer Stations

What do you think?

We're not finished. Please let us know what you like, what you don't like, and what you are still missing.